Time;durP1;ratioP1;P1;durP2;ratioP2;P2;SDS_P1;SDS_P2;PMS_P1;PMS_P2;Temp;Humidity;BMP_temperature;BMP_pressure;BME280_temperature;BME280_humidity;BME280_pressure;Samples;Min_cycle;Max_cycle;Signal;HPM_P1;HPM_P2
2021/08/05 00:02:24;;;;;;;3.70;3.40;;;15.20;99.90;;;14.27;90.64;97518.59;5000779;28;20559;-78
2021/08/05 00:04:51;;;;;;;4.00;3.70;;;15.20;99.90;;;14.33;90.94;97522.19;4997308;28;20456;-78
2021/08/05 00:07:19;;;;;;;4.13;3.80;;;15.20;99.90;;;14.28;92.13;97533.81;4992750;28;20458;-80
2021/08/05 00:09:46;;;;;;;4.03;3.70;;;15.20;99.90;;;14.19;91.06;97527.19;4991550;28;20452;-79
2021/08/05 00:12:14;;;;;;;4.23;3.93;;;15.10;99.90;;;14.11;92.21;97521.09;4982220;28;20465;-78
2021/08/05 00:14:43;;;;;;;4.90;4.50;;;15.10;99.90;;;14.09;92.67;97519.69;4982494;28;21017;-78
2021/08/05 00:17:11;;;;;;;4.30;4.00;;;15.00;99.90;;;14.13;92.89;97523.59;4994954;28;20449;-79
2021/08/05 00:19:38;;;;;;;4.50;4.17;;;15.00;99.90;;;14.23;93.16;97528.34;4995918;28;20483;-78
2021/08/05 00:22:06;;;;;;;4.30;3.77;;;15.10;99.90;;;14.20;90.50;97497.03;4992495;28;20464;-79
2021/08/05 00:24:34;;;;;;;4.13;3.00;;;15.10;99.90;;;14.29;90.10;97521.88;4995808;28;20547;-79
2021/08/05 00:27:01;;;;;;;4.00;3.43;;;15.10;99.90;;;14.20;90.46;97512.53;4979564;28;20464;-78
2021/08/05 00:29:28;;;;;;;4.20;3.90;;;15.10;99.90;;;14.02;91.06;97496.28;4996772;28;20473;-79
2021/08/05 00:31:55;;;;;;;4.00;3.70;;;15.00;99.90;;;14.09;90.37;97520.53;4994811;28;20714;-78
2021/08/05 00:34:23;;;;;;;4.20;3.90;;;15.00;99.90;;;14.15;91.57;97521.44;4995145;28;20492;-79
2021/08/05 00:36:55;;;;;;;4.37;4.00;;;15.00;99.90;;;13.54;90.80;97411.72;4999401;28;20460;-79
2021/08/05 00:39:22;;;;;;;4.73;4.43;;;15.10;99.90;;;13.85;91.22;97463.72;4984090;28;20499;-80
2021/08/05 00:41:50;;;;;;;5.40;4.90;;;15.00;99.90;;;13.99;91.72;97487.78;4994646;28;20474;-79
2021/08/05 00:44:19;;;;;;;5.60;5.10;;;15.00;99.90;;;13.99;92.07;97501.38;4989265;28;20441;-79
2021/08/05 00:46:45;;;;;;;5.70;5.20;;;14.90;99.90;;;14.05;91.81;97510.41;4998256;28;20976;-80
2021/08/05 00:49:12;;;;;;;5.80;5.30;;;15.00;99.90;;;14.04;92.22;97498.75;4991064;28;20461;-80
2021/08/05 00:51:40;;;;;;;5.07;4.77;;;14.90;99.90;;;13.92;91.50;97492.59;4997048;28;20547;-79
2021/08/05 00:54:09;;;;;;;5.00;4.63;;;14.90;99.90;;;14.04;91.59;97493.31;4999159;28;20903;-80
2021/08/05 00:56:38;;;;;;;5.57;5.07;;;15.00;99.90;;;14.20;90.79;97502.47;5000243;28;20467;-81
2021/08/05 00:59:06;;;;;;;5.30;4.80;;;15.00;99.90;;;14.16;90.33;97498.63;4998099;28;20470;-79
2021/08/05 01:01:40;;;;;;;5.87;4.90;;;15.00;99.90;;;14.16;90.90;97502.16;4983298;28;20507;-79
2021/08/05 01:04:08;;;;;;;6.60;4.67;;;15.00;99.90;;;14.11;90.70;97499.38;4999402;28;20452;-79
2021/08/05 01:06:46;;;;;;;5.13;4.73;;;15.00;99.90;;;14.11;90.53;97493.94;5004027;28;20456;-79
2021/08/05 01:09:24;;;;;;;5.80;5.30;;;15.00;99.90;;;13.92;91.25;97447.25;5000303;28;20452;-79
2021/08/05 01:11:59;;;;;;;4.93;4.57;;;15.00;99.90;;;14.14;90.35;97479.84;4983282;28;20470;-79
2021/08/05 01:14:37;;;;;;;5.50;5.00;;;15.00;99.90;;;14.01;89.82;97461.19;5002242;28;20487;-79
2021/08/05 01:17:05;;;;;;;4.67;4.27;;;15.00;99.90;;;14.10;89.44;97476.00;4997356;28;20440;-80
2021/08/05 01:19:43;;;;;;;5.30;4.83;;;15.00;99.90;;;14.07;90.25;97465.66;5004061;28;20507;-80
2021/08/05 01:22:18;;;;;;;5.07;4.67;;;15.00;99.90;;;14.17;90.93;97482.06;5005440;28;20452;-79
2021/08/05 01:24:56;;;;;;;5.67;5.17;;;15.00;99.90;;;14.11;91.35;97468.69;4995412;28;20616;-80
2021/08/05 01:27:26;;;;;;;6.20;5.80;;;15.00;99.90;;;13.94;91.30;97436.13;4982253;28;20464;-79
2021/08/05 01:29:54;;;;;;;6.23;5.73;;;15.10;99.90;;;14.20;91.75;97479.94;5000780;28;21017;-79
2021/08/05 01:32:23;;;;;;;6.30;5.80;;;15.10;99.90;;;14.09;91.80;97460.78;4962502;28;20452;-80
2021/08/05 01:34:50;;;;;;;6.97;6.47;;;15.10;99.90;;;14.22;91.66;97484.03;5004876;28;21023;-80
2021/08/05 01:37:19;;;;;;;6.50;5.90;;;15.10;99.90;;;14.19;91.48;97481.00;4987751;28;20479;-79
2021/08/05 01:39:46;;;;;;;6.80;6.20;;;15.10;99.90;;;14.21;91.86;97476.16;4984237;28;21007;-81
2021/08/05 01:42:20;;;;;;;6.73;6.13;;;15.10;99.90;;;14.08;90.82;97459.13;5003137;28;20532;-79
2021/08/05 01:44:51;;;;;;;6.23;5.70;;;15.00;99.90;;;14.03;90.63;97453.66;5004755;28;20483;-78
2021/08/05 01:47:20;;;;;;;6.70;6.10;;;15.00;99.90;;;14.14;91.66;97471.69;5004169;28;21038;-79
2021/08/05 01:49:48;;;;;;;7.10;5.20;;;15.00;99.90;;;14.14;91.55;97471.69;4998612;28;20972;-79
2021/08/05 01:52:18;;;;;;;7.30;6.70;;;15.00;99.90;;;14.16;91.93;97464.13;5003825;28;20444;-79
2021/08/05 01:54:46;;;;;;;6.90;6.40;;;15.10;99.90;;;13.96;91.27;97448.41;5010414;28;20475;-78
2021/08/05 01:57:15;;;;;;;7.60;7.03;;;15.10;99.90;;;14.08;92.24;97456.44;4997629;28;20506;-79
2021/08/05 01:59:42;;;;;;;7.50;6.90;;;15.10;99.90;;;14.02;92.28;97444.66;5000363;28;20467;-79
2021/08/05 02:02:10;;;;;;;7.67;6.93;;;15.00;99.90;;;14.12;91.87;97462.19;5002403;28;20503;-80
2021/08/05 02:04:53;;;;;;;7.50;6.80;;;15.10;99.90;;;14.05;91.42;97451.50;4999223;28;20840;-78
2021/08/05 02:07:26;;;;;;;6.20;5.80;;;15.00;99.90;;;14.09;91.71;97458.06;4997310;28;20456;-79
2021/08/05 02:10:01;;;;;;;8.53;7.73;;;15.00;99.90;;;14.15;92.87;97456.25;4982224;28;20453;-78
2021/08/05 02:12:40;;;;;;;9.03;7.83;;;15.00;99.90;;;14.20;92.84;97459.00;5000840;28;20447;-79
2021/08/05 02:15:11;;;;;;;8.03;7.33;;;15.10;99.90;;;14.19;92.93;97459.28;5001249;28;20523;-79
2021/08/05 02:17:43;;;;;;;8.93;8.03;;;15.10;99.90;;;14.09;92.53;97436.34;4985329;28;20459;-79
2021/08/05 02:20:13;;;;;;;8.37;7.67;;;15.10;99.90;;;14.03;92.57;97426.50;4994630;28;21018;-79
2021/08/05 02:22:44;;;;;;;8.97;8.17;;;15.10;99.90;;;14.22;92.89;97456.84;4996298;28;20548;-79
2021/08/05 02:25:13;;;;;;;9.10;8.20;;;15.10;99.90;;;14.23;93.11;97453.06;5000235;28;20480;-79
2021/08/05 02:27:42;;;;;;;9.30;8.50;;;15.10;99.90;;;14.21;92.95;97451.69;5002225;28;20499;-78
2021/08/05 02:30:11;;;;;;;8.83;8.07;;;15.10;99.90;;;14.14;92.89;97438.31;5006271;28;20472;-79
2021/08/05 02:32:42;;;;;;;8.73;8.03;;;15.10;99.90;;;14.09;92.53;97430.91;5002518;28;20448;-78
2021/08/05 02:35:12;;;;;;;9.93;8.80;;;15.10;99.90;;;14.15;92.76;97442.66;4991553;28;20476;-78
2021/08/05 02:37:40;;;;;;;9.60;8.70;;;15.10;99.90;;;14.09;92.61;97425.47;4998369;28;20998;-78
2021/08/05 02:40:09;;;;;;;10.03;9.23;;;15.10;99.90;;;14.14;92.24;97444.53;4998981;28;20456;-79
2021/08/05 02:42:36;;;;;;;9.37;7.97;;;15.00;99.90;;;13.90;92.42;97416.00;4992234;28;20480;-77
2021/08/05 02:45:05;;;;;;;9.83;8.83;;;15.00;99.90;;;14.14;92.37;97449.97;4987338;28;20902;-78
2021/08/05 02:47:32;;;;;;;9.97;9.07;;;15.00;99.90;;;14.10;92.55;97437.13;5001593;28;20538;-78
2021/08/05 02:50:02;;;;;;;9.77;8.87;;;15.00;99.90;;;14.13;92.85;97439.38;5000978;28;20451;-78
2021/08/05 02:52:29;;;;;;;9.40;8.60;;;15.00;99.90;;;14.14;92.62;97425.53;4998887;28;20484;-78
2021/08/05 02:54:57;;;;;;;10.20;9.27;;;15.10;99.90;;;14.22;92.57;97448.72;4986587;28;20485;-78
2021/08/05 02:57:24;;;;;;;10.20;9.30;;;15.10;99.90;;;14.14;92.71;97428.25;4995044;28;20512;-78
2021/08/05 02:59:51;;;;;;;10.27;9.33;;;15.10;99.90;;;14.16;92.88;97420.66;4997545;28;20499;-78
2021/08/05 03:02:18;;;;;;;11.27;10.17;;;15.10;99.90;;;14.25;92.79;97437.31;4989547;28;20454;-78
2021/08/05 03:04:47;;;;;;;10.97;10.07;;;15.10;99.90;;;14.27;93.08;97437.09;4996497;28;20463;-78
2021/08/05 03:07:15;;;;;;;10.57;9.67;;;15.20;99.90;;;14.16;92.82;97417.13;4989594;28;20475;-79
2021/08/05 03:09:43;;;;;;;10.93;9.97;;;15.20;99.90;;;14.29;93.39;97434.94;5000056;28;20444;-78
2021/08/05 03:12:10;;;;;;;10.07;9.27;;;15.10;99.90;;;14.24;93.08;97432.97;4997238;28;20543;-78
2021/08/05 03:14:37;;;;;;;9.93;9.13;;;15.10;99.90;;;14.24;93.31;97427.53;4999614;28;20468;-78
2021/08/05 03:17:06;;;;;;;10.13;9.13;;;15.10;99.90;;;14.16;92.85;97417.94;5006671;28;20507;-78
2021/08/05 03:19:33;;;;;;;9.80;9.00;;;15.10;99.90;;;14.25;92.83;97422.94;4983528;28;20468;-78
2021/08/05 03:22:00;;;;;;;9.80;9.00;;;15.10;99.90;;;14.24;93.29;97432.16;4999397;28;20481;-78
2021/08/05 03:24:28;;;;;;;10.17;9.33;;;15.10;99.90;;;14.15;93.06;97408.16;5004847;28;20480;-78
2021/08/05 03:26:57;;;;;;;14.33;10.40;;;15.20;99.90;;;14.24;93.47;97415.88;5000950;28;20814;-78
2021/08/05 03:29:25;;;;;;;10.27;9.47;;;15.20;99.90;;;14.23;93.52;97414.22;4995305;28;21016;-78
2021/08/05 03:31:52;;;;;;;12.00;10.13;;;15.20;99.90;;;14.12;93.65;97402.44;4997970;28;20479;-78
2021/08/05 03:34:19;;;;;;;10.17;9.27;;;15.10;99.90;;;14.20;92.63;97409.31;4996749;28;20449;-78
2021/08/05 03:36:46;;;;;;;9.33;8.63;;;15.10;99.90;;;14.10;92.46;97399.94;4975636;28;20467;-78
2021/08/05 03:39:13;;;;;;;9.10;8.30;;;15.10;99.90;;;14.14;92.98;97403.00;5000991;28;20455;-78
2021/08/05 03:41:43;;;;;;;10.63;9.63;;;15.10;99.90;;;14.23;93.09;97408.78;5007831;28;20516;-80
2021/08/05 03:44:12;;;;;;;10.93;10.03;;;15.10;99.90;;;14.23;93.21;97409.59;4988082;28;20463;-81
2021/08/05 03:46:41;;;;;;;10.23;9.23;;;15.20;99.90;;;14.01;93.45;97380.56;5000577;28;20452;-81
2021/08/05 03:49:09;;;;;;;13.00;11.83;;;15.10;99.90;;;14.18;93.35;97406.81;4987872;28;20488;-81
2021/08/05 03:51:37;;;;;;;11.93;10.80;;;15.20;99.90;;;14.23;93.24;97414.22;5003134;28;20956;-81
2021/08/05 03:54:06;;;;;;;11.93;10.87;;;15.10;99.90;;;14.15;93.52;97405.44;4989941;28;20452;-81
2021/08/05 03:56:34;;;;;;;13.60;12.20;;;15.20;99.90;;;14.25;93.86;97417.50;5006387;28;20494;-82
2021/08/05 03:59:04;;;;;;;12.97;11.90;;;15.10;99.90;;;14.25;93.77;97417.50;5005983;28;20850;-82
2021/08/05 04:01:36;;;;;;;11.80;10.70;;;15.20;99.90;;;14.28;93.59;97422.44;5001462;28;22798;-82
2021/08/05 04:04:04;;;;;;;12.90;11.80;;;15.20;99.90;;;14.14;93.41;97406.50;4997094;28;20539;-82
2021/08/05 04:06:31;;;;;;;12.67;11.50;;;15.20;99.90;;;14.10;93.34;97405.38;5001620;28;20441;-81
2021/08/05 04:08:59;;;;;;;13.03;11.83;;;15.20;99.90;;;14.04;93.44;97387.41;4983316;28;20932;-81
2021/08/05 04:11:27;;;;;;;14.00;12.70;;;15.20;99.90;;;14.14;94.04;97409.22;5001386;28;20487;-81
2021/08/05 04:13:56;;;;;;;14.07;12.70;;;15.20;99.90;;;14.05;93.59;97397.19;4999104;28;20625;-81
2021/08/05 04:16:24;;;;;;;14.70;13.40;;;15.20;99.90;;;14.24;93.99;97405.00;4997833;28;20990;-81
2021/08/05 04:18:52;;;;;;;14.90;13.50;;;15.20;99.90;;;14.27;93.70;97412.63;5008958;28;20490;-82
2021/08/05 04:21:19;;;;;;;11.80;10.40;;;15.20;99.90;;;14.24;93.38;97405.81;5009664;28;20509;-81
2021/08/05 04:23:48;;;;;;;11.57;10.53;;;15.20;99.90;;;14.10;92.90;97389.09;5004653;28;20562;-82
2021/08/05 04:26:16;;;;;;;15.57;10.40;;;15.30;99.90;;;14.24;93.12;97399.56;5001656;28;20488;-82
2021/08/05 04:28:43;;;;;;;12.13;11.03;;;15.30;99.90;;;14.26;92.79;97409.13;5000985;28;20471;-81
2021/08/05 04:31:10;;;;;;;12.90;11.30;;;15.30;99.90;;;13.92;92.93;97349.50;4992044;28;20551;-81
2021/08/05 04:33:41;;;;;;;13.97;12.67;;;15.30;99.90;;;14.30;93.33;97417.56;5011155;28;20462;-82
2021/08/05 04:36:09;;;;;;;12.77;11.53;;;15.30;99.90;;;14.33;93.24;97416.22;5010138;28;20492;-81
2021/08/05 04:38:39;;;;;;;12.93;10.87;;;15.30;99.90;;;14.33;93.08;97425.22;5007478;28;20460;-82
2021/08/05 04:41:06;;;;;;;14.30;12.97;;;15.30;99.90;;;14.27;93.19;97420.78;5010060;28;20452;-81
2021/08/05 04:43:37;;;;;;;14.80;13.33;;;15.30;99.90;;;14.27;92.65;97409.91;5008743;28;20468;-81
2021/08/05 04:46:11;;;;;;;13.80;11.70;;;15.30;99.90;;;14.38;93.10;97427.97;5010689;28;20460;-81
2021/08/05 04:48:40;;;;;;;12.43;11.30;;;15.30;99.90;;;14.42;92.61;97418.25;5006698;28;20474;-82
2021/08/05 04:51:08;;;;;;;11.47;10.57;;;15.40;99.90;;;14.37;91.76;97403.78;5003262;28;20515;-82
2021/08/05 04:53:35;;;;;;;11.70;10.60;;;15.40;99.90;;;14.24;92.00;97383.25;4992801;28;20456;-81
2021/08/05 04:56:06;;;;;;;12.47;11.10;;;15.40;99.90;;;14.43;91.88;97419.88;5003124;28;20531;-82
2021/08/05 04:58:33;;;;;;;11.83;10.73;;;15.40;99.90;;;14.53;91.77;97423.78;4995365;28;20471;-81
2021/08/05 05:01:01;;;;;;;11.97;10.30;;;15.40;99.90;;;14.40;90.75;97404.09;4978712;28;20519;-81
2021/08/05 05:03:30;;;;;;;12.97;11.87;;;15.50;99.90;;;14.59;91.19;97422.75;4996569;28;20532;-82
2021/08/05 05:06:00;;;;;;;11.53;10.47;;;15.50;99.90;;;14.66;91.42;97422.56;5005960;28;20452;-81
2021/08/05 05:08:27;;;;;;;11.37;10.30;;;15.60;99.90;;;14.67;91.23;97421.47;4998192;28;20472;-81
2021/08/05 05:11:01;;;;;;;10.77;9.77;;;15.60;99.90;;;14.65;90.51;97427.19;4990512;28;20511;-82
2021/08/05 05:13:28;;;;;;;11.53;10.50;;;15.60;99.90;;;14.67;90.91;97419.59;5003190;28;20896;-81
2021/08/05 05:15:56;;;;;;;12.57;11.47;;;15.60;99.90;;;14.72;91.07;97411.50;4967992;28;20478;-80
2021/08/05 05:18:25;;;;;;;11.43;10.43;;;15.60;99.90;;;14.78;91.30;97414.25;4981302;28;20487;-80
2021/08/05 05:20:54;;;;;;;12.50;11.30;;;15.70;99.90;;;14.88;90.81;97414.38;5003062;28;20437;-81
2021/08/05 05:23:24;;;;;;;11.87;10.87;;;15.80;99.90;;;14.93;90.71;97411.69;4994952;28;20442;-84
2021/08/05 05:26:01;;;;;;;12.20;11.17;;;15.90;99.90;;;14.89;90.36;97399.69;4980030;28;20440;-86
2021/08/05 05:28:30;;;;;;;11.13;10.23;;;15.80;99.90;;;14.90;89.60;97395.88;4976898;28;20463;-82
2021/08/05 05:31:00;;;;;;;10.93;10.03;;;15.90;99.90;;;14.95;88.76;97406.81;4980341;28;20495;-83
2021/08/05 05:33:30;;;;;;;12.07;10.97;;;15.90;99.90;;;15.00;89.83;97409.59;4969286;28;20525;-80
2021/08/05 05:35:57;;;;;;;12.60;11.60;;;16.00;99.90;;;14.98;88.81;97411.75;4990458;28;20468;-79
2021/08/05 05:38:26;;;;;;;11.57;10.40;;;16.00;99.90;;;14.98;89.05;97397.31;5001978;28;20959;-79
2021/08/05 05:40:53;;;;;;;10.03;9.03;;;16.00;99.90;;;14.95;88.09;97392.41;4999663;28;20444;-79
2021/08/05 05:43:21;;;;;;;9.93;9.03;;;16.00;99.90;;;15.05;89.14;97418.84;4996714;28;20448;-80
2021/08/05 05:45:48;;;;;;;12.40;9.87;;;16.00;99.90;;;15.02;87.51;97418.31;4997057;28;20519;-80
2021/08/05 05:48:15;;;;;;;12.03;10.90;;;16.00;99.90;;;15.04;87.64;97406.34;5007321;28;20475;-81
2021/08/05 05:50:42;;;;;;;10.93;9.93;;;16.00;99.90;;;15.21;88.41;97406.22;4999168;28;20860;-80
2021/08/05 05:53:10;;;;;;;15.80;14.07;;;16.10;99.90;;;15.07;88.13;97394.94;4999053;28;20956;-80
2021/08/05 05:55:40;;;;;;;11.33;10.33;;;16.20;99.90;;;15.29;87.54;97414.72;4995707;28;20499;-80
2021/08/05 05:58:07;;;;;;;10.30;9.40;;;16.20;99.90;;;15.14;87.42;97376.50;4999486;28;20471;-81
2021/08/05 06:00:35;;;;;;;15.23;9.87;;;16.30;99.80;;;15.40;87.96;97420.22;4999278;28;20464;-80
2021/08/05 06:03:02;;;;;;;11.87;10.73;;;16.30;99.90;;;15.33;88.17;97416.91;4978437;28;20628;-80
2021/08/05 06:05:29;;;;;;;12.17;10.40;;;16.30;99.90;;;15.23;87.99;97414.94;4976351;28;20479;-81
2021/08/05 06:07:57;;;;;;;11.93;10.90;;;16.30;99.90;;;15.39;87.25;97418.56;4995603;28;20456;-80
2021/08/05 06:10:24;;;;;;;12.10;11.10;;;16.30;99.30;;;15.30;87.06;97404.63;4998020;28;20499;-81
2021/08/05 06:12:54;;;;;;;11.90;10.77;;;16.30;98.90;;;15.26;87.14;97409.78;4973069;28;20531;-81
2021/08/05 06:15:21;;;;;;;11.73;10.63;;;16.30;98.40;;;15.23;88.25;97423.91;4994062;28;20472;-80
2021/08/05 06:17:48;;;;;;;10.37;9.37;;;16.30;99.90;;;15.17;86.43;97405.91;4996097;28;20522;-80
2021/08/05 06:20:20;;;;;;;8.50;7.80;;;16.20;97.50;;;15.14;84.87;97420.03;5000101;28;20448;-80
2021/08/05 06:22:49;;;;;;;10.27;9.30;;;16.20;94.70;;;15.20;86.13;97426.34;4982445;28;20484;-81
2021/08/05 06:25:18;;;;;;;9.83;8.90;;;16.10;97.30;;;15.23;86.42;97428.53;4994104;28;20496;-79
2021/08/05 06:27:46;;;;;;;9.20;8.50;;;16.20;97.20;;;15.23;86.39;97415.72;4983006;28;20460;-79
2021/08/05 06:30:15;;;;;;;9.63;8.73;;;16.20;97.20;;;15.18;85.50;97429.31;4983196;28;20995;-79
2021/08/05 06:32:42;;;;;;;10.43;9.70;;;16.20;96.00;;;15.07;87.34;97403.94;5005550;28;20490;-78
2021/08/05 06:35:11;;;;;;;9.50;8.60;;;16.20;98.70;;;15.07;86.73;97424.84;4999026;28;20453;-79
2021/08/05 06:37:39;;;;;;;10.40;9.37;;;16.10;96.80;;;15.16;87.26;97420.59;4996613;28;20484;-82
2021/08/05 06:40:08;;;;;;;10.00;9.10;;;16.20;99.90;;;14.95;85.47;97408.72;4987595;28;20508;-82
2021/08/05 06:42:37;;;;;;;9.47;8.67;;;16.10;95.70;;;14.85;86.49;97409.44;4985048;28;20527;-80
2021/08/05 06:45:12;;;;;;;9.40;8.63;;;16.00;96.50;;;15.05;87.20;97432.47;4991920;28;20464;-79
2021/08/05 06:47:44;;;;;;;11.20;10.07;;;16.00;97.70;;;15.08;87.17;97402.00;4995934;28;20440;-80
2021/08/05 06:50:13;;;;;;;10.50;9.50;;;16.10;99.90;;;15.14;87.33;97407.22;4998458;28;20484;-84
2021/08/05 06:52:40;;;;;;;9.50;8.70;;;16.30;98.90;;;15.39;86.57;97424.00;4994054;28;20468;-80
2021/08/05 06:55:08;;;;;;;8.40;7.60;;;16.40;98.90;;;15.42;86.12;97421.59;4992462;28;20647;-80
2021/08/05 06:57:35;;;;;;;8.13;7.33;;;16.40;96.90;;;15.63;85.75;97434.53;5004011;28;20452;-80
2021/08/05 07:00:03;;;;;;;9.13;8.20;;;16.60;96.60;;;15.44;84.31;97424.06;4977767;28;20452;-80
2021/08/05 07:02:31;;;;;;;9.20;8.30;;;16.50;93.80;;;15.56;84.93;97413.81;4984470;28;20480;-80
2021/08/05 07:05:02;;;;;;;8.50;7.63;;;16.60;95.50;;;15.64;84.39;97417.09;5002004;28;20491;-80
2021/08/05 07:07:29;;;;;;;8.83;8.03;;;16.70;94.90;;;15.41;83.25;97413.72;5002346;28;20510;-80
2021/08/05 07:09:58;;;;;;;8.40;7.70;;;16.60;93.10;;;15.57;84.49;97418.16;4983182;28;20556;-80
2021/08/05 07:12:25;;;;;;;10.10;9.10;;;16.60;94.60;;;15.80;84.49;97435.16;4991031;28;20563;-80
2021/08/05 07:14:53;;;;;;;9.00;7.87;;;16.70;94.30;;;15.96;84.74;97432.56;5002312;28;20610;-79
2021/08/05 07:17:20;;;;;;;9.73;8.87;;;16.80;95.20;;;15.89;84.58;97412.88;5004504;28;20464;-81
2021/08/05 07:19:47;;;;;;;8.90;8.20;;;17.00;94.90;;;15.88;84.29;97386.75;5004252;28;20519;-80
2021/08/05 07:22:16;;;;;;;9.77;8.80;;;17.10;94.60;;;15.97;82.28;97428.75;4999209;28;20483;-79
2021/08/05 07:24:43;;;;;;;8.37;7.70;;;17.10;92.00;;;15.93;83.09;97424.91;5001853;28;20676;-78
2021/08/05 07:27:11;;;;;;;10.67;8.63;;;17.00;92.80;;;16.10;83.38;97424.72;5003700;28;20460;-79
2021/08/05 07:29:38;;;;;;;8.23;7.63;;;17.10;92.80;;;16.06;81.12;97405.38;5000544;28;20536;-81
2021/08/05 07:32:08;;;;;;;7.30;6.70;;;17.20;91.40;;;16.13;80.06;97416.03;4990613;28;21067;-82
2021/08/05 07:34:37;;;;;;;8.27;7.47;;;17.20;89.90;;;16.21;79.52;97428.31;4989202;28;20453;-80
2021/08/05 07:37:06;;;;;;;7.27;6.77;;;17.20;89.40;;;16.17;79.84;97427.22;5001243;28;20488;-82
2021/08/05 07:39:34;;;;;;;7.90;7.17;;;17.30;89.50;;;16.22;78.68;97408.94;5002052;28;20506;-81
2021/08/05 07:42:01;;;;;;;10.17;9.13;;;17.30;87.60;;;16.40;78.80;97415.03;5006034;28;20479;-81
2021/08/05 07:44:28;;;;;;;8.40;7.60;;;17.40;88.20;;;16.47;78.88;97403.88;5009806;28;20464;-83
2021/08/05 07:46:55;;;;;;;7.77;7.10;;;17.60;88.50;;;16.70;78.66;97421.66;5006151;28;20464;-84
2021/08/05 07:49:25;;;;;;;10.67;7.00;;;17.70;88.20;;;16.78;76.91;97421.09;5006801;28;20476;-82
2021/08/05 07:51:52;;;;;;;7.43;6.83;;;17.80;85.40;;;16.82;76.50;97422.19;4990325;28;20453;-82
2021/08/05 07:54:20;;;;;;;7.37;6.70;;;17.90;85.40;;;16.89;76.17;97421.94;5000623;28;20449;-83
2021/08/05 07:56:50;;;;;;;7.17;6.57;;;18.10;84.90;;;17.04;76.38;97423.88;4998776;28;20480;-84
2021/08/05 07:59:19;;;;;;;6.33;5.77;;;18.10;84.50;;;17.20;75.18;97430.16;5008679;28;20457;-82
2021/08/05 08:01:47;;;;;;;6.97;6.37;;;18.30;83.20;;;17.37;75.63;97420.88;5001801;28;20438;-82
2021/08/05 08:04:15;;;;;;;7.57;6.97;;;18.30;83.10;;;17.86;74.38;97421.34;4989921;28;20467;-79
2021/08/05 08:06:43;;;;;;;6.57;5.97;;;18.60;82.80;;;18.15;74.52;97423.47;4994137;28;20441;-80
2021/08/05 08:09:10;;;;;;;6.33;5.83;;;18.90;83.80;;;17.99;72.36;97420.75;4988595;28;20445;-82
2021/08/05 08:11:37;;;;;;;6.90;6.30;;;19.10;79.60;;;18.18;71.88;97411.97;4984679;28;20488;-79
2021/08/05 08:14:06;;;;;;;6.53;5.93;;;19.20;78.70;;;18.26;71.34;97409.47;5000444;28;20491;-79
2021/08/05 08:16:35;;;;;;;6.33;5.83;;;19.40;77.80;;;19.04;69.46;97424.63;4995505;28;20482;-79
2021/08/05 08:19:06;;;;;;;6.57;5.97;;;19.60;77.50;;;18.82;70.11;97421.19;4999962;28;20483;-84
2021/08/05 08:21:33;;;;;;;6.80;5.53;;;19.70;76.10;;;18.89;67.72;97415.41;4964870;28;20548;-85
2021/08/05 08:24:02;;;;;;;6.47;5.97;;;19.90;74.20;;;18.66;67.89;97415.00;5000623;28;20455;-81
2021/08/05 08:26:30;;;;;;;6.37;5.87;;;20.00;72.70;;;18.74;68.35;97419.03;4975689;28;20959;-82
2021/08/05 08:28:57;;;;;;;6.07;5.60;;;19.90;72.70;;;19.14;68.77;97419.06;5008663;28;20481;-82
2021/08/05 08:31:26;;;;;;;6.85;6.25;;;20.00;73.60;;;18.29;67.94;97413.56;5001547;28;20569;-85
2021/08/05 08:33:58;;;;;;;7.33;6.63;;;20.00;70.90;;;18.39;69.21;97358.81;4997838;28;20194;-83
2021/08/05 08:36:25;;;;;;;7.00;6.40;;;19.90;72.80;;;19.19;68.46;97419.03;4999457;28;20476;-85
2021/08/05 08:38:58;;;;;;;6.83;6.20;;;20.20;72.50;;;19.08;66.71;97417.47;5004954;28;20440;-83
2021/08/05 08:44:39;;;;;;;7.37;6.77;;;20.50;70.40;;;19.99;64.71;97413.34;4997589;28;20495;-86
2021/08/05 08:47:10;;;;;;;7.33;6.73;;;20.90;69.60;;;20.28;63.60;97393.25;5004753;28;20452;-83
2021/08/05 08:49:41;;;;;;;7.67;7.07;;;21.30;68.80;;;19.75;63.78;97403.16;5009795;28;20436;-87
2021/08/05 08:52:11;;;;;;;8.03;6.10;;;21.30;66.80;;;20.11;63.19;97377.28;5007266;28;20447;-84
2021/08/05 08:54:47;;;;;;;7.40;6.80;;;21.20;67.50;;;20.35;61.60;97363.53;4970143;28;20471;-86
2021/08/05 08:57:16;;;;;;;7.63;7.00;;;21.50;66.90;;;20.75;62.15;97403.59;4997517;28;20491;-84
2021/08/05 08:59:45;;;;;;;7.10;6.50;;;21.70;66.30;;;20.63;62.45;97388.38;5000472;28;20488;-82
2021/08/05 09:02:20;;;;;;;7.27;6.67;;;21.80;66.00;;;20.52;62.72;97400.59;4979226;28;20461;-83
2021/08/05 09:04:47;;;;;;;7.77;7.17;;;21.90;65.60;;;20.23;63.14;97396.88;4987808;28;20963;-86
2021/08/05 09:07:15;;;;;;;8.77;8.17;;;21.70;65.60;;;20.21;62.82;97390.03;4991246;28;20450;-86
2021/08/05 09:09:46;;;;;;;8.50;7.70;;;21.60;65.30;;;20.68;60.32;97346.31;4991201;28;20464;-85
2021/08/05 09:12:16;;;;;;;9.43;8.57;;;21.80;64.90;;;20.92;59.39;97356.38;4987066;28;20506;-85
2021/08/05 09:14:50;;;;;;;9.10;8.40;;;22.10;64.50;;;20.89;59.91;97305.66;4986182;28;20596;-85
2021/08/05 09:17:34;;;;;;;10.13;9.10;;;22.30;65.20;;;20.01;59.12;97325.31;4991604;28;20542;-86
2021/08/05 09:20:09;;;;;;;9.30;8.23;;;21.60;62.60;;;20.30;60.51;97391.03;4999551;28;20436;-84
2021/08/05 09:22:39;;;;;;;8.50;7.90;;;21.40;63.60;;;21.04;58.52;97383.41;5003924;28;20455;-83
2021/08/05 09:25:28;;;;;;;7.70;7.20;;;22.00;63.10;;;20.77;58.29;97390.38;4999045;28;20457;-86
2021/08/05 09:27:59;;;;;;;8.03;7.40;;;22.30;61.40;;;21.02;58.23;97382.88;4996786;28;20484;-84
2021/08/05 09:30:37;;;;;;;8.83;8.13;;;22.20;62.00;;;20.60;58.52;97385.41;4988469;28;20505;-82
2021/08/05 09:33:13;;;;;;;7.63;7.03;;;22.00;61.30;;;21.23;56.56;97389.66;4995391;28;20484;-82
2021/08/05 09:35:45;;;;;;;8.57;7.77;;;22.30;61.30;;;21.20;58.36;97354.56;5007041;28;20448;-85
2021/08/05 09:38:22;;;;;;;10.30;9.43;;;22.60;61.80;;;21.53;55.93;97367.44;5011635;28;20471;-84
2021/08/05 09:40:58;;;;;;;9.60;8.30;;;22.20;61.00;;;20.87;58.92;97365.56;5000577;28;20456;-83
2021/08/05 09:43:30;;;;;;;10.37;9.47;;;21.90;61.90;;;21.12;57.97;97382.69;5000598;28;20514;-86
2021/08/05 09:45:58;;;;;;;9.97;9.17;;;21.70;62.10;;;21.00;57.70;97382.34;4988448;28;20499;-84
2021/08/05 09:48:41;;;;;;;8.93;8.10;;;21.60;62.10;;;20.78;58.57;97356.31;4983034;28;20940;-84
2021/08/05 09:51:14;;;;;;;8.27;7.57;;;21.60;62.50;;;20.51;59.88;97341.34;4980530;28;20477;-83
2021/08/05 09:54:00;;;;;;;8.07;7.40;;;21.50;62.80;;;20.18;59.95;97371.44;4991421;28;20480;-83
2021/08/05 09:56:29;;;;;;;9.00;8.30;;;21.60;61.80;;;20.46;59.60;97379.84;5001530;28;20450;-83
2021/08/05 09:59:11;;;;;;;10.10;9.10;;;21.60;62.00;;;20.54;58.80;97365.44;5008487;28;20224;-83
2021/08/05 10:02:00;;;;;;;7.37;6.67;;;21.70;61.60;;;20.62;58.33;97348.31;5014968;28;20463;-83
2021/08/05 10:04:43;;;;;;;7.23;6.63;;;22.00;61.90;;;20.89;55.42;97360.56;5005914;28;20777;-84
2021/08/05 10:07:11;;;;;;;6.23;5.83;;;22.20;59.90;;;21.63;52.53;97353.50;4973475;28;20490;-84
2021/08/05 10:09:40;;;;;;;5.50;5.10;;;22.50;58.70;;;21.45;53.28;97363.44;4999927;28;20463;-84
2021/08/05 10:12:15;;;;;;;4.83;4.43;;;22.70;58.80;;;21.85;51.05;97359.44;5003457;28;20455;-84
2021/08/05 10:14:45;;;;;;;4.73;4.30;;;22.90;57.50;;;22.01;50.95;97346.22;5010245;28;20532;-83
2021/08/05 10:17:16;;;;;;;4.90;4.50;;;23.00;57.20;;;21.61;50.22;97355.75;5004961;28;20851;-85
2021/08/05 10:19:49;;;;;;;4.47;4.07;;;22.70;56.10;;;21.19;52.00;97372.16;5012003;28;20202;-86
2021/08/05 10:22:18;;;;;;;4.00;3.57;;;22.40;56.60;;;21.05;56.00;97365.81;5002263;28;20472;-89
2021/08/05 10:24:50;;;;;;;6.20;5.60;;;22.20;58.60;;;19.68;64.67;97345.16;4999044;28;20449;-86
2021/08/05 10:27:21;;;;;;;8.80;6.53;;;21.30;63.10;;;18.85;77.33;97358.78;5012005;28;20456;-87
2021/08/05 10:29:51;;;;;;;9.53;8.63;;;20.10;72.30;;;17.88;73.84;97362.56;5014589;28;20515;-88